Overview Statistics Trail Chart Weather Telemetry Raw packets
 

This is the latest recevied weather packets stored in our database for station/object SV9TNF-51. If no packets are shown the sender has not sent any weather packets the latest 10 day(s).

<< 99 100 101 102 103 104 105 >>
Time Temp. Humidity Pressure Rain* Wind** Luminosity Snow
1787919982 35.56° C 35% 1011.5 hPa 0 mm 4.92 m/s, 134° - -
1787919682 35° C 35% 1011.5 hPa 0 mm 5.36 m/s, 141° - -
1787919382 35.56° C 34% 1011.5 hPa 0 mm 5.81 m/s, 109° - -
1787919081 35.56° C 34% 1011.5 hPa 0 mm 6.26 m/s, 121° - -
1787918782 36.11° C 35% 1011.5 hPa 0 mm 4.47 m/s, 77° - -
1787918482 35.56° C 35% 1011.5 hPa 0 mm 4.47 m/s, 129° - -
1787918181 37.22° C 34% 1011.9 hPa 0 mm 4.47 m/s, 134° - -
1787917881 36.67° C 35% 1011.9 hPa 0 mm 4.92 m/s, 117° - -
1787917581 36.11° C 35% 1011.9 hPa 0 mm 4.47 m/s, 113° - -
1787917281 36.67° C 32% 1011.9 hPa 0 mm 4.92 m/s, 131° - -
1787916981 37.78° C 32% 1011.9 hPa 0 mm 1.79 m/s, 115° - -
1787916681 37.22° C 32% 1011.9 hPa 0 mm 4.02 m/s, 109° - -
1787916380 37.78° C 30% 1011.9 hPa 0 mm 3.58 m/s, 122° - -
1787916081 38.33° C 30% 1012.2 hPa 0 mm 3.58 m/s, 134° - -
1787915780 38.33° C 31% 1012.2 hPa 0 mm 3.13 m/s, 114° - -
1787915481 37.78° C 30% 1011.9 hPa 0 mm 1.79 m/s, 151° - -
1787915180 37.78° C 30% 1011.9 hPa 0 mm 0.89 m/s, 128° - -
1787914880 38.33° C 30% 1011.9 hPa 0 mm 0.89 m/s, 141° - -
1787914580 37.78° C 31% 1011.9 hPa 0 mm 1.34 m/s, 121° - -
1787914280 37.22° C 30% 1011.9 hPa 0 mm 6.71 m/s, 110° - -
1787913980 38.33° C 28% 1011.9 hPa 0 mm 1.79 m/s, 145° - -
1787913680 37.78° C 30% 1011.9 hPa 0 mm 1.79 m/s, 127° - -
1787913379 36.67° C 31% 1011.9 hPa 0 mm 4.92 m/s, 105° - -
1787913079 36.11° C 31% 1011.9 hPa 0 mm 4.47 m/s, 154° - -
1787912779 36.67° C 32% 1011.9 hPa 0 mm 3.13 m/s, 127° - -

* Rain latest hour (hover to see other rain measurements)
** Current wind speed in m/s (hover to see current wind gust speed)